createdAt,value
2016-07-18T00:00:01.138Z,56.18
2016-07-18T00:01:01.707Z,56.47
2016-07-18T00:02:01.855Z,56.47
2016-07-18T00:03:01.856Z,56.37
2016-07-18T00:04:01.157Z,56.37
2016-07-18T00:05:01.865Z,56.47
2016-07-18T00:06:01.871Z,56.67
2016-07-18T00:07:01.875Z,56.28
2016-07-18T00:08:01.883Z,56.37
2016-07-18T00:09:01.175Z,55.6
2016-07-18T00:10:02.389Z,55.99
2016-07-18T00:11:01.902Z,55.73
2016-07-18T00:12:01.642Z,55.82
2016-07-18T00:13:01.906Z,55.53
2016-07-18T00:14:01.200Z,55.73
2016-07-18T00:15:01.208Z,55.43
2016-07-18T00:16:01.212Z,55.63
2016-07-18T00:17:01.938Z,55.34
2016-07-18T00:18:01.221Z,55.34
2016-07-18T00:19:01.941Z,55.82
2016-07-18T00:20:01.940Z,55.53
2016-07-18T00:21:01.944Z,56.09
2016-07-18T00:22:01.950Z,55.99
2016-07-18T00:23:01.957Z,55.6
2016-07-18T00:24:01.958Z,56.37
2016-07-18T00:25:03.067Z,56.37
2016-07-18T00:26:01.969Z,56.37
2016-07-18T00:27:01.973Z,56.37
2016-07-18T00:28:01.977Z,56.37
2016-07-18T00:29:01.981Z,55.89
2016-07-18T00:30:01.988Z,56.18
2016-07-18T00:31:01.284Z,56.47
2016-07-18T00:32:01.290Z,56.37
2016-07-18T00:33:02.001Z,56.37
2016-07-18T00:34:01.299Z,56.57
2016-07-18T00:35:02.008Z,55.99
2016-07-18T00:36:02.413Z,56.47
2016-07-18T00:37:01.310Z,56.57
2016-07-18T00:38:01.316Z,56.18
2016-07-18T00:39:01.319Z,56.28
2016-07-18T00:40:02.029Z,56.57
2016-07-18T00:41:01.328Z,56.47
2016-07-18T00:42:02.040Z,56.37
2016-07-18T00:43:01.337Z,56.47
2016-07-18T00:44:02.051Z,56.28
2016-07-18T00:45:03.155Z,56.47
2016-07-18T00:46:01.350Z,56.28
2016-07-18T00:47:02.462Z,56.28
2016-07-18T00:48:01.358Z,56.67
2016-07-18T00:49:02.068Z,56.28
2016-07-18T00:50:02.074Z,56.28
2016-07-18T00:51:01.370Z,55.99
2016-07-18T00:52:02.083Z,55.6
2016-07-18T00:53:02.086Z,55.41
2016-07-18T00:54:02.097Z,55.79
2016-07-18T00:55:02.095Z,55.51
2016-07-18T00:56:03.203Z,55.21
2016-07-18T00:57:02.106Z,55.51
2016-07-18T00:58:01.702Z,55.79
2016-07-18T00:59:02.118Z,55.41
2016-07-18T01:00:03.025Z,55.6
2016-07-18T01:01:01.417Z,55.51
2016-07-18T01:02:02.126Z,56.09
2016-07-18T01:03:02.134Z,55.89
2016-07-18T01:04:02.139Z,55.79
2016-07-18T01:05:02.142Z,55.41
2016-07-18T01:06:02.149Z,55.41
2016-07-18T01:07:02.153Z,54.83
2016-07-18T01:08:02.158Z,55.41
2016-07-18T01:09:01.454Z,55.02
2016-07-18T01:10:02.168Z,54.83
2016-07-18T01:11:03.177Z,55.15
2016-07-18T01:12:02.176Z,54.95
2016-07-18T01:13:01.476Z,55.11
2016-07-18T01:14:02.187Z,55.24
2016-07-18T01:15:02.194Z,55.02
2016-07-18T01:16:01.489Z,55.21
2016-07-18T01:17:01.499Z,55.31
2016-07-18T01:18:02.221Z,55.41
2016-07-18T01:19:02.212Z,56.18
2016-07-18T01:20:03.196Z,55.41
2016-07-18T01:21:02.224Z,55.6
2016-07-18T01:22:02.574Z,55.21
2016-07-18T01:23:01.528Z,55.6
2016-07-18T01:24:02.238Z,55.79
2016-07-18T01:25:01.539Z,55.51
2016-07-18T01:26:02.248Z,55.41
2016-07-18T01:27:02.255Z,55.11
2016-07-18T01:28:01.553Z,54.93
2016-07-18T01:29:02.264Z,55.11
2016-07-18T01:30:02.269Z,55.02
2016-07-18T01:31:02.274Z,54.83
2016-07-18T01:32:01.573Z,54.63
2016-07-18T01:33:02.032Z,54.95
2016-07-18T01:34:02.291Z,54.63
2016-07-18T01:35:02.295Z,54.83
2016-07-18T01:36:01.593Z,54.73
2016-07-18T01:37:02.307Z,55.21
2016-07-18T01:38:02.308Z,55.02
2016-07-18T01:39:02.317Z,55.02
2016-07-18T01:40:01.613Z,54.93
2016-07-18T01:41:02.325Z,55.02
2016-07-18T01:42:03.158Z,55.79
2016-07-18T01:43:02.335Z,55.11
2016-07-18T01:44:02.486Z,55.31
2016-07-18T01:45:02.344Z,55.51
2016-07-18T01:46:01.645Z,55.21
2016-07-18T01:47:01.649Z,55.6
2016-07-18T01:48:01.658Z,55.31
2016-07-18T01:49:02.364Z,55.51
2016-07-18T01:50:02.372Z,55.6
2016-07-18T01:51:01.674Z,55.31
2016-07-18T01:52:01.677Z,55.41
2016-07-18T01:53:01.681Z,55.51
2016-07-18T01:54:02.393Z,55.6
2016-07-18T01:55:01.839Z,55.31
2016-07-18T01:56:01.696Z,55.6
2016-07-18T01:57:01.699Z,55.41
2016-07-18T01:58:02.414Z,54.93
2016-07-18T01:59:01.710Z,54.73
2016-07-18T02:00:02.423Z,54.93
2016-07-18T02:01:01.720Z,54.73
2016-07-18T02:02:01.728Z,54.83
2016-07-18T02:03:01.728Z,54.63
2016-07-18T02:04:02.444Z,54.83
2016-07-18T02:05:02.449Z,54.93
2016-07-18T02:06:02.456Z,54.83
2016-07-18T02:07:02.458Z,55.02
2016-07-18T02:08:03.466Z,54.63
2016-07-18T02:09:02.470Z,55.02
2016-07-18T02:10:02.480Z,54.93
2016-07-18T02:11:01.776Z,55.02
2016-07-18T02:12:01.777Z,55.11
2016-07-18T02:13:02.493Z,55.51
2016-07-18T02:14:02.497Z,55.21
2016-07-18T02:15:02.501Z,55.11
2016-07-18T02:16:02.508Z,55.41
2016-07-18T02:17:02.515Z,55.02
2016-07-18T02:18:02.528Z,55.31
2016-07-18T02:19:02.937Z,55.31
2016-07-18T02:20:02.529Z,55.02
2016-07-18T02:21:02.532Z,54.93
2016-07-18T02:22:02.537Z,55.02
2016-07-18T02:23:02.541Z,55.21
2016-07-18T02:24:01.838Z,54.83
2016-07-18T02:25:01.845Z,54.93
2016-07-18T02:26:02.557Z,55.21
2016-07-18T02:27:01.858Z,55.31
2016-07-18T02:28:02.569Z,55.31
2016-07-18T02:29:02.575Z,54.83
2016-07-18T02:30:01.883Z,54.63
2016-07-18T02:31:02.584Z,54.63
2016-07-18T02:32:01.881Z,55.11
2016-07-18T02:33:01.886Z,54.83
2016-07-18T02:34:01.892Z,55.21
2016-07-18T02:35:02.605Z,54.93
2016-07-18T02:36:02.608Z,55.31
2016-07-18T02:37:01.906Z,55.89
2016-07-18T02:38:01.916Z,55.57
2016-07-18T02:39:01.913Z,55.29
2016-07-18T02:40:02.628Z,55.7
2016-07-18T02:41:03.381Z,55.67
2016-07-18T02:42:01.930Z,55.47
2016-07-18T02:43:01.932Z,55.09
2016-07-18T02:44:02.646Z,54.99
2016-07-18T02:45:02.649Z,54.53
2016-07-18T02:46:02.656Z,55.31
2016-07-18T02:47:02.659Z,54.35
2016-07-18T02:48:01.958Z,54.53
2016-07-18T02:49:02.669Z,54.93
2016-07-18T02:50:02.673Z,54.53
2016-07-18T02:51:02.678Z,54.44
2016-07-18T02:52:02.787Z,54.73
2016-07-18T02:53:01.987Z,54.63
2016-07-18T02:54:01.987Z,54.63
2016-07-18T02:55:02.703Z,54.63
2016-07-18T02:56:02.711Z,54.63
2016-07-18T02:57:02.003Z,54.25
2016-07-18T02:58:02.008Z,54.63
2016-07-18T02:59:02.019Z,54.93
2016-07-18T03:00:02.016Z,54.15
2016-07-18T03:01:02.024Z,54.25
2016-07-18T03:02:02.733Z,54.53
2016-07-18T03:03:02.991Z,54.63
2016-07-18T03:04:02.746Z,54.83
2016-07-18T03:05:02.048Z,54.8
2016-07-18T03:06:02.753Z,55.29
2016-07-18T03:07:02.053Z,54.8
2016-07-18T03:08:02.057Z,54.63
2016-07-18T03:09:02.768Z,54.44
2016-07-18T03:10:02.775Z,54.83
2016-07-18T03:11:02.078Z,55.02
2016-07-18T03:12:02.785Z,54.63
2016-07-18T03:13:02.788Z,54.93
2016-07-18T03:14:02.440Z,54.83
2016-07-18T03:15:02.801Z,54.63
2016-07-18T03:16:03.704Z,54.83
2016-07-18T03:17:02.101Z,55.09
2016-07-18T03:18:02.107Z,55.09
2016-07-18T03:19:02.829Z,55.21
2016-07-18T03:20:02.114Z,55.09
2016-07-18T03:21:02.834Z,54.53
2016-07-18T03:22:02.833Z,54.44
2016-07-18T03:23:02.841Z,54.63
2016-07-18T03:24:02.135Z,55.02
2016-07-18T03:25:02.141Z,55.02
2016-07-18T03:26:02.851Z,55.77
2016-07-18T03:27:03.964Z,55.67
2016-07-18T03:28:02.152Z,55.38
2016-07-18T03:29:02.510Z,54.61
2016-07-18T03:30:02.218Z,54.61
2016-07-18T03:31:02.877Z,54.32
2016-07-18T03:32:02.879Z,54.35
2016-07-18T03:33:02.183Z,54.44
2016-07-18T03:34:02.897Z,54.63
2016-07-18T03:35:02.894Z,54.53
2016-07-18T03:36:02.193Z,54.73
2016-07-18T03:37:02.910Z,54.35
2016-07-18T03:38:03.510Z,54.73
2016-07-18T03:39:02.915Z,54.44
2016-07-18T03:40:02.922Z,54.53
2016-07-18T03:41:02.219Z,54.83
2016-07-18T03:42:02.223Z,54.53
2016-07-18T03:43:02.934Z,54.63
2016-07-18T03:44:02.240Z,54.44
2016-07-18T03:45:02.945Z,54.44
2016-07-18T03:46:02.952Z,54.73
2016-07-18T03:47:02.956Z,54.35
2016-07-18T03:48:02.255Z,54.35
2016-07-18T03:49:03.875Z,54.51
2016-07-18T03:50:02.971Z,54.63
2016-07-18T03:51:02.977Z,54.61
2016-07-18T03:52:02.274Z,54.53
2016-07-18T03:53:02.280Z,54.93
2016-07-18T03:54:02.286Z,54.93
2016-07-18T03:55:02.288Z,54.51
2016-07-18T03:56:03.001Z,54.53
2016-07-18T03:57:03.054Z,54.35
2016-07-18T03:58:03.010Z,54.63
2016-07-18T03:59:03.018Z,54.35
2016-07-18T04:00:03.314Z,54.53
2016-07-18T04:01:03.027Z,54.83
2016-07-18T04:02:03.030Z,54.44
2016-07-18T04:03:03.042Z,54.83
2016-07-18T04:04:02.334Z,54.53
2016-07-18T04:05:03.047Z,54.63
2016-07-18T04:06:02.344Z,54.44
2016-07-18T04:07:03.056Z,54.51
2016-07-18T04:08:02.354Z,54.32
2016-07-18T04:09:03.068Z,54.61
2016-07-18T04:10:03.072Z,54.51
2016-07-18T04:11:02.970Z,54.61
2016-07-18T04:12:03.080Z,54.53
2016-07-18T04:13:02.389Z,54.41
2016-07-18T04:14:03.090Z,54.53
2016-07-18T04:15:03.644Z,54.63
2016-07-18T04:16:02.394Z,54.05
2016-07-18T04:17:03.105Z,53.96
2016-07-18T04:18:02.404Z,53.77
2016-07-18T04:19:03.118Z,53.86
2016-07-18T04:20:03.119Z,54.05
2016-07-18T04:21:03.129Z,53.86
2016-07-18T04:22:03.131Z,53.86
2016-07-18T04:23:03.139Z,54.35
2016-07-18T04:24:03.142Z,54.83
2016-07-18T04:25:02.439Z,54.35
2016-07-18T04:26:03.097Z,54.53
2016-07-18T04:27:02.448Z,54.53
2016-07-18T04:28:03.164Z,54.51
2016-07-18T04:29:03.169Z,54.63
2016-07-18T04:30:02.464Z,54.41
2016-07-18T04:31:03.176Z,54.25
2016-07-18T04:32:03.181Z,54.83
2016-07-18T04:33:03.188Z,54.05
2016-07-18T04:34:03.190Z,54.35
2016-07-18T04:35:03.805Z,54.63
2016-07-18T04:36:03.203Z,54.99
2016-07-18T04:37:03.206Z,54.9
2016-07-18T04:38:03.216Z,54.41
2016-07-18T04:39:03.217Z,54.35
2016-07-18T04:40:02.514Z,54.35
2016-07-18T04:41:02.516Z,54.44
2016-07-18T04:42:02.521Z,55.11
2016-07-18T04:43:03.236Z,55.29
2016-07-18T04:44:02.529Z,55.96
2016-07-18T04:45:03.241Z,54.9
2016-07-18T04:46:04.348Z,54.99
2016-07-18T04:47:02.545Z,54.99
2016-07-18T04:48:03.554Z,54.99
2016-07-18T04:49:02.557Z,55.57
2016-07-18T04:50:03.263Z,55.47
2016-07-18T04:51:03.267Z,54.99
2016-07-18T04:52:02.565Z,55.29
2016-07-18T04:53:03.287Z,54.53
2016-07-18T04:54:03.291Z,55.02
2016-07-18T04:55:03.284Z,54.25
2016-07-18T04:56:02.580Z,53.86
2016-07-18T04:57:04.399Z,53.69
2016-07-18T04:58:03.296Z,53.41
2016-07-18T04:59:02.992Z,53.11
2016-07-18T05:00:02.600Z,52.73
2016-07-18T05:01:02.605Z,52.44
2016-07-18T05:02:03.315Z,52.36
2016-07-18T05:03:03.321Z,52.17
2016-07-18T05:04:02.621Z,52.46
2016-07-18T05:05:03.332Z,52.46
2016-07-18T05:06:02.628Z,52.27
2016-07-18T05:07:03.342Z,51.98
2016-07-18T05:08:02.642Z,51.78
2016-07-18T05:09:02.649Z,52.08
2016-07-18T05:10:03.359Z,51.98
2016-07-18T05:11:02.660Z,51.3
2016-07-18T05:12:04.491Z,51.5
2016-07-18T05:13:02.673Z,51.72
2016-07-18T05:14:03.384Z,51.62
2016-07-18T05:15:03.393Z,51.13
2016-07-18T05:16:03.405Z,51.13
2016-07-18T05:17:03.405Z,50.65
2016-07-18T05:18:03.414Z,50.55
2016-07-18T05:19:02.714Z,50.55
2016-07-18T05:20:03.430Z,50.74
2016-07-18T05:21:03.028Z,50.65
2016-07-18T05:22:02.736Z,50.45
2016-07-18T05:23:02.743Z,50.16
2016-07-18T05:24:02.753Z,50.35
2016-07-18T05:25:02.757Z,50.09
2016-07-18T05:26:02.768Z,50.09
2016-07-18T05:27:02.775Z,49.8
2016-07-18T05:28:03.491Z,49.9
2016-07-18T05:29:02.790Z,49.9
2016-07-18T05:30:02.805Z,50.19
2016-07-18T05:31:03.516Z,49.9
2016-07-18T05:32:03.521Z,49.51
2016-07-18T05:33:02.876Z,49.61
2016-07-18T05:34:04.491Z,49.8
2016-07-18T05:35:03.550Z,49.51
2016-07-18T05:36:02.850Z,49.8
2016-07-18T05:37:02.860Z,49.61
2016-07-18T05:38:02.867Z,49.99
2016-07-18T05:39:03.582Z,50.19
2016-07-18T05:40:03.591Z,49.9
2016-07-18T05:41:02.903Z,50.38
2016-07-18T05:42:03.617Z,50.48
2016-07-18T05:43:02.906Z,50.09
2016-07-18T05:44:02.915Z,50.09
2016-07-18T05:45:03.826Z,49.87
2016-07-18T05:46:03.637Z,50.09
2016-07-18T05:47:02.939Z,50.07
2016-07-18T05:48:03.650Z,50.35
2016-07-18T05:49:02.955Z,50.07
2016-07-18T05:50:02.957Z,50.35
2016-07-18T05:51:03.674Z,50.35
2016-07-18T05:52:03.682Z,50.38
2016-07-18T05:53:03.691Z,50.07
2016-07-18T05:54:03.703Z,50.35
2016-07-18T05:55:02.995Z,50.26
2016-07-18T05:56:04.311Z,50.07
2016-07-18T05:57:03.714Z,50.45
2016-07-18T05:58:04.693Z,50.16
2016-07-18T05:59:03.778Z,50.35
2016-07-18T06:00:03.026Z,50.65
2016-07-18T06:01:03.737Z,50.94
2016-07-18T06:02:03.039Z,50.74
2016-07-18T06:03:03.750Z,50.84
2016-07-18T06:04:03.051Z,50.84
2016-07-18T06:05:03.056Z,50.74
2016-07-18T06:06:03.768Z,50.55
2016-07-18T06:07:03.777Z,50.35
2016-07-18T06:08:03.782Z,50.45
2016-07-18T06:09:04.893Z,50.74
2016-07-18T06:10:03.793Z,50.16
2016-07-18T06:11:03.095Z,50.74
2016-07-18T06:12:03.099Z,50.55
2016-07-18T06:13:03.811Z,50.84
2016-07-18T06:14:03.819Z,51.13
2016-07-18T06:15:03.824Z,50.84
2016-07-18T06:16:03.128Z,50.65
2016-07-18T06:17:03.129Z,50.84
2016-07-18T06:18:03.842Z,50.84
2016-07-18T06:19:03.143Z,50.65
2016-07-18T06:20:04.985Z,50.74
2016-07-18T06:21:03.152Z,50.55
2016-07-18T06:22:03.866Z,50.26
2016-07-18T06:23:03.166Z,50.35
2016-07-18T06:24:03.172Z,50.16
2016-07-18T06:25:03.887Z,49.87
2016-07-18T06:26:03.892Z,50.07
2016-07-18T06:27:03.896Z,50.07
2016-07-18T06:28:03.197Z,49.97
2016-07-18T06:29:03.503Z,50.07
2016-07-18T06:30:03.916Z,49.99
2016-07-18T06:31:04.776Z,49.68
2016-07-18T06:32:03.930Z,50.09
2016-07-18T06:33:03.231Z,50.19
2016-07-18T06:34:03.991Z,49.87
2016-07-18T06:35:03.241Z,49.87
2016-07-18T06:36:03.959Z,49.87
2016-07-18T06:37:03.961Z,49.77
2016-07-18T06:38:03.263Z,50.07
2016-07-18T06:39:03.977Z,50.07
2016-07-18T06:40:03.277Z,50.16
2016-07-18T06:41:03.989Z,49.58
2016-07-18T06:42:04.797Z,49.77
2016-07-18T06:43:04.006Z,49.87
2016-07-18T06:44:04.013Z,49.97
2016-07-18T06:45:04.017Z,49.87
2016-07-18T06:46:04.026Z,49.97
2016-07-18T06:47:03.324Z,49.77
2016-07-18T06:48:04.050Z,49.87
2016-07-18T06:49:04.043Z,49.77
2016-07-18T06:50:03.347Z,50.07
2016-07-18T06:51:03.361Z,50.16
2016-07-18T06:52:03.358Z,50.45
2016-07-18T06:53:04.275Z,49.77
2016-07-18T06:54:03.374Z,49.77
2016-07-18T06:55:04.090Z,50.07
2016-07-18T06:56:03.390Z,49.99
2016-07-18T06:57:03.400Z,49.87
2016-07-18T06:58:04.108Z,50.35
2016-07-18T06:59:04.117Z,50.16
2016-07-18T07:00:04.125Z,50.16
2016-07-18T07:01:04.183Z,50.07
2016-07-18T07:02:04.141Z,49.77
2016-07-18T07:03:04.143Z,49.97
2016-07-18T07:04:04.404Z,50.09
2016-07-18T07:05:03.453Z,50.07
2016-07-18T07:06:05.036Z,49.97
2016-07-18T07:07:03.466Z,50.07
2016-07-18T07:08:03.484Z,49.8
2016-07-18T07:09:04.189Z,49.49
2016-07-18T07:10:04.198Z,49.99
2016-07-18T07:11:04.202Z,49.51
2016-07-18T07:12:03.501Z,49.12
2016-07-18T07:13:04.216Z,49.8
2016-07-18T07:14:04.223Z,49.7
2016-07-18T07:15:03.974Z,49.61
2016-07-18T07:16:04.237Z,49.8
2016-07-18T07:17:03.537Z,49.12
2016-07-18T07:18:03.545Z,49.9
2016-07-18T07:19:04.259Z,49.02
2016-07-18T07:20:03.561Z,49.61
2016-07-18T07:21:04.273Z,49.12
2016-07-18T07:22:03.572Z,49.02
2016-07-18T07:23:04.290Z,49.99
2016-07-18T07:24:04.295Z,50.09
2016-07-18T07:25:03.598Z,50.38
2016-07-18T07:26:04.311Z,50.09
2016-07-18T07:27:03.610Z,49.99
2016-07-18T07:28:03.618Z,48.93
2016-07-18T07:29:03.623Z,49.51
2016-07-18T07:30:04.338Z,49.51
2016-07-18T07:31:03.636Z,49.51
2016-07-18T07:32:04.351Z,49.41
2016-07-18T07:33:04.358Z,48.66
2016-07-18T07:34:04.369Z,49.24
2016-07-18T07:35:04.373Z,48.18
2016-07-18T07:36:03.673Z,48.47
2016-07-18T07:37:04.389Z,49.05
2016-07-18T07:38:04.397Z,48.76
2016-07-18T07:39:03.699Z,49.15
2016-07-18T07:40:04.412Z,48.76
2016-07-18T07:41:04.471Z,48.76
2016-07-18T07:42:03.730Z,48.57
2016-07-18T07:43:04.437Z,48.47
2016-07-18T07:44:03.752Z,48.57
2016-07-18T07:45:03.749Z,48.57
2016-07-18T07:46:04.462Z,48.47
2016-07-18T07:47:04.471Z,48.76
2016-07-18T07:48:03.770Z,48.95
2016-07-18T07:49:03.781Z,48.47
2016-07-18T07:50:05.293Z,49.24
2016-07-18T07:51:03.798Z,49.73
2016-07-18T07:52:04.510Z,49.32
2016-07-18T07:53:04.521Z,48.95
2016-07-18T07:54:04.525Z,49.24
2016-07-18T07:55:03.828Z,48.76
2016-07-18T07:56:04.543Z,49.34
2016-07-18T07:57:04.550Z,48.74
2016-07-18T07:58:04.556Z,48.93
2016-07-18T07:59:04.566Z,49.7
2016-07-18T08:00:03.865Z,50.12
2016-07-18T08:01:04.831Z,49.41
2016-07-18T08:02:04.639Z,49.22
2016-07-18T08:03:04.599Z,50.19
2016-07-18T08:04:03.897Z,49.99
2016-07-18T08:05:03.903Z,49.61
2016-07-18T08:06:03.909Z,49.61
2016-07-18T08:07:04.625Z,48.76
2016-07-18T08:08:03.928Z,49.44
2016-07-18T08:09:04.640Z,49.24
2016-07-18T08:10:03.941Z,49.24
2016-07-18T08:11:03.949Z,48.47
2016-07-18T08:12:04.711Z,48.76
2016-07-18T08:13:03.965Z,48.57
2016-07-18T08:14:04.679Z,48.47
2016-07-18T08:15:03.976Z,48.66
2016-07-18T08:16:05.200Z,49.44
2016-07-18T08:17:03.993Z,49.15
2016-07-18T08:18:04.708Z,49.44
2016-07-18T08:19:04.007Z,49.73
2016-07-18T08:20:04.721Z,48.85
2016-07-18T08:21:04.727Z,49.82
2016-07-18T08:22:04.736Z,49.34
2016-07-18T08:23:04.033Z,49.24
2016-07-18T08:24:04.750Z,48.76
2016-07-18T08:25:04.052Z,48.76
2016-07-18T08:26:04.770Z,50.79
2016-07-18T08:27:04.664Z,49.44
2016-07-18T08:28:04.780Z,49.54
2016-07-18T08:29:04.079Z,49.05
2016-07-18T08:30:04.087Z,49.82
2016-07-18T08:31:04.093Z,49.61
2016-07-18T08:32:04.808Z,49.51
2016-07-18T08:33:04.817Z,50.19
2016-07-18T08:34:04.826Z,50.12
2016-07-18T08:35:04.123Z,49.54
2016-07-18T08:36:05.542Z,49.32
2016-07-18T08:37:04.844Z,48.93
2016-07-18T08:38:04.938Z,49.12
2016-07-18T08:39:04.858Z,49.61
2016-07-18T08:40:04.865Z,49.51
2016-07-18T08:41:04.164Z,49.8
2016-07-18T08:42:04.879Z,49.54
2016-07-18T08:43:04.885Z,49.7
2016-07-18T08:44:04.186Z,49.99
2016-07-18T08:45:04.192Z,49.63
2016-07-18T08:46:04.200Z,50.09
2016-07-18T08:47:06.042Z,50.02
2016-07-18T08:48:04.217Z,49.82
2016-07-18T08:49:04.622Z,50.12
2016-07-18T08:50:04.228Z,50.79
2016-07-18T08:51:04.944Z,51.09
2016-07-18T08:52:04.247Z,51.09
2016-07-18T08:53:04.251Z,51.25
2016-07-18T08:54:04.254Z,51.16
2016-07-18T08:55:04.972Z,51.54
2016-07-18T08:56:04.271Z,51.37
2016-07-18T08:57:04.277Z,51.47
2016-07-18T08:58:04.285Z,51.47
2016-07-18T08:59:04.998Z,51.57
2016-07-18T09:00:05.102Z,51.47
2016-07-18T09:01:05.016Z,52.03
2016-07-18T09:02:04.314Z,52.15
2016-07-18T09:03:04.375Z,51.86
2016-07-18T09:04:05.033Z,51.28
2016-07-18T09:05:05.048Z,51.86
2016-07-18T09:06:04.342Z,52.34
2016-07-18T09:07:05.052Z,52.44
2016-07-18T09:08:05.065Z,51.37
2016-07-18T09:09:05.070Z,51.37
2016-07-18T09:10:04.372Z,51.76
2016-07-18T09:11:05.387Z,51.47
2016-07-18T09:12:05.089Z,51.57
2016-07-18T09:13:04.391Z,51.09
2016-07-18T09:14:04.395Z,51.86
2016-07-18T09:15:05.110Z,51.96
2016-07-18T09:16:05.118Z,51.67
2016-07-18T09:17:04.419Z,51.86
2016-07-18T09:18:05.129Z,52.06
2016-07-18T09:19:05.139Z,51.86
2016-07-18T09:20:05.147Z,51.86
2016-07-18T09:21:05.154Z,51.47
2016-07-18T09:22:05.158Z,51.57
2016-07-18T09:23:04.461Z,51.96
2016-07-18T09:24:06.224Z,51.57
2016-07-18T09:25:05.179Z,52.15
2016-07-18T09:26:05.189Z,51.67
2016-07-18T09:27:04.495Z,52.54
2016-07-18T09:28:05.202Z,52.25
2016-07-18T09:29:05.209Z,52.15
2016-07-18T09:30:05.219Z,51.47
2016-07-18T09:31:05.226Z,51.67
2016-07-18T09:32:04.521Z,51.57
2016-07-18T09:33:05.235Z,51.67
2016-07-18T09:34:05.244Z,51.47
2016-07-18T09:35:06.362Z,51.18
2016-07-18T09:36:05.259Z,51.96
2016-07-18T09:37:05.265Z,51.47
2016-07-18T09:38:05.272Z,51.37
2016-07-18T09:39:05.282Z,52.25
2016-07-18T09:40:05.286Z,51.96
2016-07-18T09:41:05.294Z,51.18
2016-07-18T09:42:04.603Z,51.96
2016-07-18T09:43:05.316Z,51.96
2016-07-18T09:44:05.317Z,51.67
2016-07-18T09:45:04.617Z,51.47
2016-07-18T09:46:06.331Z,51.67
2016-07-18T09:47:05.390Z,51.76
2016-07-18T09:48:04.679Z,51.47
2016-07-18T09:49:05.456Z,51.67
2016-07-18T09:50:04.841Z,51.47
2016-07-18T09:51:04.769Z,51.57
2016-07-18T09:52:05.419Z,51.57
2016-07-18T09:53:04.673Z,51.57
2016-07-18T09:54:05.401Z,51.47
2016-07-18T09:55:05.403Z,51.47
2016-07-18T09:56:04.694Z,51.37
2016-07-18T09:57:05.842Z,52.44
2016-07-18T09:58:04.931Z,51.76
2016-07-18T09:59:05.034Z,51.69
2016-07-18T10:00:04.845Z,51.47
2016-07-18T10:01:05.984Z,51.47
2016-07-18T10:02:05.917Z,51.57
2016-07-18T10:03:05.981Z,51.37
2016-07-18T10:04:05.200Z,51.47
2016-07-18T10:05:05.045Z,51.37
2016-07-18T10:06:05.212Z,51.86
2016-07-18T10:07:05.975Z,51.57
2016-07-18T10:08:06.210Z,51.47
2016-07-18T10:09:05.207Z,51.37
2016-07-18T10:10:06.062Z,51.76
2016-07-18T10:11:05.197Z,51.57
2016-07-18T10:12:05.522Z,51.47
2016-07-18T10:13:05.272Z,51.47
2016-07-18T10:14:05.535Z,51.57
2016-07-18T10:15:04.835Z,51.09
2016-07-18T10:16:05.548Z,51.57
2016-07-18T10:17:04.852Z,51.57
2016-07-18T10:18:05.565Z,51.67
2016-07-18T10:19:06.427Z,51.76
2016-07-18T10:20:05.579Z,51.47
2016-07-18T10:21:04.879Z,51.67
2016-07-18T10:22:05.596Z,52.06
2016-07-18T10:23:05.607Z,51.86
2016-07-18T10:24:05.611Z,52.15
2016-07-18T10:25:04.908Z,51.76
2016-07-18T10:26:05.624Z,52.06
2016-07-18T10:27:05.636Z,52.15
2016-07-18T10:28:05.638Z,52.15
2016-07-18T10:29:04.941Z,52.06
2016-07-18T10:30:05.646Z,51.76
2016-07-18T10:31:04.954Z,52.06
2016-07-18T10:32:05.668Z,52.34
2016-07-18T10:33:05.676Z,51.67
2016-07-18T10:34:04.979Z,52.15
2016-07-18T10:35:05.687Z,51.76
2016-07-18T10:36:05.696Z,51.96
2016-07-18T10:37:04.996Z,52.15
2016-07-18T10:38:05.004Z,52.15
2016-07-18T10:39:05.719Z,51.96
2016-07-18T10:40:05.019Z,52.06
2016-07-18T10:41:05.476Z,51.96
2016-07-18T10:42:05.739Z,51.98
2016-07-18T10:43:05.749Z,52.37
2016-07-18T10:44:05.047Z,52.15
2016-07-18T10:45:06.166Z,51.79
2016-07-18T10:46:05.770Z,51.57
2016-07-18T10:47:05.776Z,52.15
2016-07-18T10:48:05.077Z,51.76
2016-07-18T10:49:05.086Z,51.96
2016-07-18T10:50:05.092Z,52.15
2016-07-18T10:51:05.099Z,51.57
2016-07-18T10:52:05.121Z,51.76
2016-07-18T10:53:05.113Z,52.18
2016-07-18T10:54:05.832Z,52.37
2016-07-18T10:55:05.133Z,52.15
2016-07-18T10:56:05.590Z,52.08
2016-07-18T10:57:05.851Z,51.98
2016-07-18T10:58:05.864Z,51.98
2016-07-18T10:59:05.160Z,52.47
2016-07-18T11:00:05.179Z,51.89
2016-07-18T11:01:05.173Z,51.98
2016-07-18T11:02:05.179Z,51.5
2016-07-18T11:03:05.898Z,52.28
2016-07-18T11:04:05.912Z,51.98
2016-07-18T11:05:06.552Z,52.08
2016-07-18T11:06:05.223Z,52.08
2016-07-18T11:07:05.939Z,51.59
2016-07-18T11:08:05.224Z,51.4
2016-07-18T11:09:05.946Z,51.5
2016-07-18T11:10:05.947Z,51.4
2016-07-18T11:11:05.248Z,51.21
2016-07-18T11:12:05.964Z,51.79
2016-07-18T11:13:05.263Z,51.47
2016-07-18T11:14:05.276Z,51.86
2016-07-18T11:15:05.277Z,51.67
2016-07-18T11:16:06.845Z,51.4
2016-07-18T11:17:05.291Z,51.4
2016-07-18T11:18:06.060Z,51.21
2016-07-18T11:19:05.305Z,51.47
2016-07-18T11:20:06.043Z,51.5
2016-07-18T11:21:06.029Z,51.59
2016-07-18T11:22:05.329Z,51.5
2016-07-18T11:23:06.044Z,51.4
2016-07-18T11:24:06.051Z,51.21
2016-07-18T11:25:06.061Z,51.4
2016-07-18T11:26:06.066Z,51.4
2016-07-18T11:27:06.923Z,51.59
2016-07-18T11:28:05.374Z,51.5
2016-07-18T11:29:05.581Z,51.21
2016-07-18T11:30:06.100Z,51.31
2016-07-18T11:31:06.954Z,51.5
2016-07-18T11:32:05.402Z,51.5
2016-07-18T11:33:06.116Z,51.59
2016-07-18T11:34:06.125Z,51.59
2016-07-18T11:35:05.423Z,51.89
2016-07-18T11:36:05.431Z,51.79
2016-07-18T11:37:05.440Z,51.98
2016-07-18T11:38:05.446Z,51.69
2016-07-18T11:39:06.164Z,51.4
2016-07-18T11:40:06.187Z,51.4
2016-07-18T11:41:05.471Z,51.21
2016-07-18T11:42:06.984Z,51.5
2016-07-18T11:43:06.192Z,51.5
2016-07-18T11:44:05.491Z,51.69
2016-07-18T11:45:06.207Z,51.59
2016-07-18T11:46:05.557Z,51.4
2016-07-18T11:47:06.222Z,51.5
2016-07-18T11:48:06.227Z,51.59
2016-07-18T11:49:06.232Z,51.69
2016-07-18T11:50:06.244Z,52.08
2016-07-18T11:51:05.543Z,52.18
2016-07-18T11:52:06.257Z,51.69
2016-07-18T11:53:06.411Z,51.79
2016-07-18T11:54:05.671Z,52.08
2016-07-18T11:55:06.278Z,51.98
2016-07-18T11:56:06.286Z,52.15
2016-07-18T11:57:06.293Z,52.18
2016-07-18T11:58:06.300Z,51.79
2016-07-18T11:59:05.600Z,52.08
2016-07-18T12:00:06.316Z,51.59
2016-07-18T12:01:05.614Z,51.69
2016-07-18T12:02:07.456Z,52.08
2016-07-18T12:03:05.729Z,52.15
2016-07-18T12:04:06.038Z,51.89
2016-07-18T12:05:05.644Z,52.18
2016-07-18T12:06:06.359Z,52.18
2016-07-18T12:07:06.366Z,52.28
2016-07-18T12:08:06.372Z,51.5
2016-07-18T12:09:06.381Z,52.08
2016-07-18T12:10:06.388Z,51.5
2016-07-18T12:11:05.690Z,52.37
2016-07-18T12:12:06.404Z,52.37
2016-07-18T12:13:06.815Z,52.47
2016-07-18T12:14:06.416Z,51.98
2016-07-18T12:15:06.425Z,52.28
2016-07-18T12:16:06.432Z,51.79
2016-07-18T12:17:07.496Z,51.59
2016-07-18T12:18:05.742Z,51.89
2016-07-18T12:19:06.453Z,51.79
2016-07-18T12:20:06.464Z,51.69
2016-07-18T12:21:06.470Z,51.69
2016-07-18T12:22:05.776Z,52.28
2016-07-18T12:23:05.780Z,52.18
2016-07-18T12:24:05.786Z,52.18
2016-07-18T12:25:06.498Z,52.28
2016-07-18T12:26:05.801Z,52.18
2016-07-18T12:27:06.514Z,52.18
2016-07-18T12:28:06.918Z,51.98
2016-07-18T12:29:06.529Z,52.28
2016-07-18T12:30:05.826Z,51.89
2016-07-18T12:31:06.541Z,51.79
2016-07-18T12:32:05.849Z,52.08
2016-07-18T12:33:05.850Z,52.18
2016-07-18T12:34:06.566Z,52.18
2016-07-18T12:35:06.572Z,51.69
2016-07-18T12:36:05.880Z,51.89
2016-07-18T12:37:06.591Z,51.21
2016-07-18T12:38:06.596Z,51.89
2016-07-18T12:39:07.108Z,51.5
2016-07-18T12:40:06.609Z,51.4
2016-07-18T12:41:06.615Z,51.79
2016-07-18T12:42:06.624Z,51.98
2016-07-18T12:43:06.699Z,51.5
2016-07-18T12:44:06.638Z,51.79
2016-07-18T12:45:06.643Z,51.89
2016-07-18T12:46:06.653Z,52.18
2016-07-18T12:47:06.770Z,52.08
2016-07-18T12:48:06.672Z,52.08
2016-07-18T12:49:06.673Z,52.08
2016-07-18T12:50:07.683Z,51.89
2016-07-18T12:51:06.687Z,51.98
2016-07-18T12:52:06.782Z,51.31
2016-07-18T12:53:06.704Z,51.5
2016-07-18T12:54:06.710Z,51.5